sensor_id;sensor_type;location;lat;lon;timestamp;P1;durP1;ratioP1;P2;durP2;ratioP2
8001;SDS011;4046;48.774;8.732;2023-06-26T00:00:40;5.70;;;5.27;;
8001;SDS011;4046;48.774;8.732;2023-06-26T00:03:06;5.80;;;5.40;;
8001;SDS011;4046;48.774;8.732;2023-06-26T00:05:32;5.97;;;5.57;;
8001;SDS011;4046;48.774;8.732;2023-06-26T00:07:58;5.30;;;4.90;;
8001;SDS011;4046;48.774;8.732;2023-06-26T00:10:26;5.17;;;4.80;;
8001;SDS011;4046;48.774;8.732;2023-06-26T00:12:53;6.97;;;6.47;;
8001;SDS011;4046;48.774;8.732;2023-06-26T00:15:19;5.80;;;5.40;;
8001;SDS011;4046;48.774;8.732;2023-06-26T00:17:45;6.37;;;5.90;;
8001;SDS011;4046;48.774;8.732;2023-06-26T00:20:10;6.10;;;5.60;;
8001;SDS011;4046;48.774;8.732;2023-06-26T00:22:36;6.50;;;6.00;;
8001;SDS011;4046;48.774;8.732;2023-06-26T00:25:06;6.13;;;5.73;;
8001;SDS011;4046;48.774;8.732;2023-06-26T00:27:32;6.00;;;5.60;;
8001;SDS011;4046;48.774;8.732;2023-06-26T00:29:58;5.80;;;5.30;;
8001;SDS011;4046;48.774;8.732;2023-06-26T00:32:23;6.20;;;5.80;;
8001;SDS011;4046;48.774;8.732;2023-06-26T00:34:49;6.00;;;5.60;;
8001;SDS011;4046;48.774;8.732;2023-06-26T00:37:15;5.60;;;5.17;;
8001;SDS011;4046;48.774;8.732;2023-06-26T00:39:41;5.53;;;5.13;;
8001;SDS011;4046;48.774;8.732;2023-06-26T00:42:06;5.83;;;5.43;;
8001;SDS011;4046;48.774;8.732;2023-06-26T00:44:32;5.77;;;5.37;;
8001;SDS011;4046;48.774;8.732;2023-06-26T00:46:58;6.07;;;5.67;;
8001;SDS011;4046;48.774;8.732;2023-06-26T00:49:24;5.63;;;5.23;;
8001;SDS011;4046;48.774;8.732;2023-06-26T00:51:51;5.90;;;5.50;;
8001;SDS011;4046;48.774;8.732;2023-06-26T00:54:17;5.77;;;5.37;;
8001;SDS011;4046;48.774;8.732;2023-06-26T00:56:45;6.27;;;5.87;;
8001;SDS011;4046;48.774;8.732;2023-06-26T00:59:12;6.87;;;6.37;;
8001;SDS011;4046;48.774;8.732;2023-06-26T01:01:38;6.07;;;5.63;;
8001;SDS011;4046;48.774;8.732;2023-06-26T01:04:04;6.40;;;5.90;;
8001;SDS011;4046;48.774;8.732;2023-06-26T01:06:30;5.63;;;5.23;;
8001;SDS011;4046;48.774;8.732;2023-06-26T01:09:01;6.30;;;5.90;;
8001;SDS011;4046;48.774;8.732;2023-06-26T01:11:27;5.73;;;5.33;;
8001;SDS011;4046;48.774;8.732;2023-06-26T01:13:53;6.47;;;5.97;;
8001;SDS011;4046;48.774;8.732;2023-06-26T01:16:21;5.90;;;5.50;;
8001;SDS011;4046;48.774;8.732;2023-06-26T01:18:49;5.70;;;5.30;;
8001;SDS011;4046;48.774;8.732;2023-06-26T01:21:15;6.40;;;5.90;;
8001;SDS011;4046;48.774;8.732;2023-06-26T01:26:24;6.03;;;5.63;;
8001;SDS011;4046;48.774;8.732;2023-06-26T01:28:54;6.57;;;6.07;;
8001;SDS011;4046;48.774;8.732;2023-06-26T01:31:23;5.83;;;5.43;;
8001;SDS011;4046;48.774;8.732;2023-06-26T01:33:49;6.40;;;5.93;;
8001;SDS011;4046;48.774;8.732;2023-06-26T01:36:16;6.03;;;5.53;;
8001;SDS011;4046;48.774;8.732;2023-06-26T01:38:41;5.80;;;5.40;;
8001;SDS011;4046;48.774;8.732;2023-06-26T01:41:07;6.50;;;6.00;;
8001;SDS011;4046;48.774;8.732;2023-06-26T01:46:06;6.80;;;6.20;;
8001;SDS011;4046;48.774;8.732;2023-06-26T01:48:50;6.90;;;6.40;;
8001;SDS011;4046;48.774;8.732;2023-06-26T01:54:38;6.67;;;6.27;;
8001;SDS011;4046;48.774;8.732;2023-06-26T01:57:12;6.30;;;5.80;;
8001;SDS011;4046;48.774;8.732;2023-06-26T01:59:38;5.87;;;5.47;;
8001;SDS011;4046;48.774;8.732;2023-06-26T02:02:07;6.00;;;5.60;;
8001;SDS011;4046;48.774;8.732;2023-06-26T02:04:33;6.23;;;5.73;;
8001;SDS011;4046;48.774;8.732;2023-06-26T02:06:59;6.03;;;5.63;;
8001;SDS011;4046;48.774;8.732;2023-06-26T02:09:25;6.10;;;5.70;;
8001;SDS011;4046;48.774;8.732;2023-06-26T02:11:51;6.07;;;5.60;;
8001;SDS011;4046;48.774;8.732;2023-06-26T02:14:17;6.40;;;5.90;;
8001;SDS011;4046;48.774;8.732;2023-06-26T02:16:42;6.03;;;5.63;;
8001;SDS011;4046;48.774;8.732;2023-06-26T02:19:08;6.23;;;5.83;;
8001;SDS011;4046;48.774;8.732;2023-06-26T02:21:34;6.13;;;5.73;;
8001;SDS011;4046;48.774;8.732;2023-06-26T02:24:01;5.90;;;5.50;;
8001;SDS011;4046;48.774;8.732;2023-06-26T02:26:26;6.40;;;5.60;;
8001;SDS011;4046;48.774;8.732;2023-06-26T02:28:53;6.23;;;5.77;;
8001;SDS011;4046;48.774;8.732;2023-06-26T02:31:20;5.60;;;5.20;;
8001;SDS011;4046;48.774;8.732;2023-06-26T02:33:46;5.87;;;5.47;;
8001;SDS011;4046;48.774;8.732;2023-06-26T02:36:13;6.60;;;6.10;;
8001;SDS011;4046;48.774;8.732;2023-06-26T02:38:39;6.40;;;5.90;;
8001;SDS011;4046;48.774;8.732;2023-06-26T02:41:06;5.63;;;5.23;;
8001;SDS011;4046;48.774;8.732;2023-06-26T02:43:32;6.10;;;5.70;;
8001;SDS011;4046;48.774;8.732;2023-06-26T02:45:58;6.30;;;5.90;;
8001;SDS011;4046;48.774;8.732;2023-06-26T02:48:24;6.43;;;6.03;;
8001;SDS011;4046;48.774;8.732;2023-06-26T02:50:50;5.90;;;5.50;;
8001;SDS011;4046;48.774;8.732;2023-06-26T02:53:17;6.40;;;5.90;;
8001;SDS011;4046;48.774;8.732;2023-06-26T02:55:43;6.70;;;6.20;;
8001;SDS011;4046;48.774;8.732;2023-06-26T02:58:10;6.57;;;6.07;;
8001;SDS011;4046;48.774;8.732;2023-06-26T03:00:36;6.13;;;5.73;;
8001;SDS011;4046;48.774;8.732;2023-06-26T03:03:06;6.23;;;5.83;;
8001;SDS011;4046;48.774;8.732;2023-06-26T03:05:33;6.03;;;5.63;;
8001;SDS011;4046;48.774;8.732;2023-06-26T03:07:59;6.00;;;5.60;;
8001;SDS011;4046;48.774;8.732;2023-06-26T03:10:25;6.33;;;5.93;;
8001;SDS011;4046;48.774;8.732;2023-06-26T03:12:51;6.50;;;6.00;;
8001;SDS011;4046;48.774;8.732;2023-06-26T03:15:17;6.10;;;5.70;;
8001;SDS011;4046;48.774;8.732;2023-06-26T03:17:45;6.80;;;6.30;;
8001;SDS011;4046;48.774;8.732;2023-06-26T03:20:11;6.00;;;5.60;;
8001;SDS011;4046;48.774;8.732;2023-06-26T03:22:38;6.03;;;5.63;;
8001;SDS011;4046;48.774;8.732;2023-06-26T03:25:04;6.17;;;5.67;;
8001;SDS011;4046;48.774;8.732;2023-06-26T03:27:31;6.50;;;6.10;;
8001;SDS011;4046;48.774;8.732;2023-06-26T03:29:57;7.00;;;6.50;;
8001;SDS011;4046;48.774;8.732;2023-06-26T03:32:23;5.80;;;5.40;;
8001;SDS011;4046;48.774;8.732;2023-06-26T03:34:49;5.93;;;5.53;;
8001;SDS011;4046;48.774;8.732;2023-06-26T03:37:15;6.87;;;6.37;;
8001;SDS011;4046;48.774;8.732;2023-06-26T03:39:40;6.37;;;5.90;;
8001;SDS011;4046;48.774;8.732;2023-06-26T03:42:07;6.33;;;5.93;;
8001;SDS011;4046;48.774;8.732;2023-06-26T03:44:33;6.40;;;5.90;;
8001;SDS011;4046;48.774;8.732;2023-06-26T03:46:59;6.33;;;5.83;;
8001;SDS011;4046;48.774;8.732;2023-06-26T03:49:24;5.53;;;5.13;;
8001;SDS011;4046;48.774;8.732;2023-06-26T03:51:50;6.00;;;5.60;;
8001;SDS011;4046;48.774;8.732;2023-06-26T03:54:16;6.87;;;6.37;;
8001;SDS011;4046;48.774;8.732;2023-06-26T03:56:42;6.10;;;5.70;;
8001;SDS011;4046;48.774;8.732;2023-06-26T03:59:07;5.90;;;5.50;;
8001;SDS011;4046;48.774;8.732;2023-06-26T04:01:35;6.43;;;5.93;;
8001;SDS011;4046;48.774;8.732;2023-06-26T04:04:02;6.60;;;6.10;;
8001;SDS011;4046;48.774;8.732;2023-06-26T04:06:28;6.50;;;6.07;;
8001;SDS011;4046;48.774;8.732;2023-06-26T04:08:53;6.43;;;5.93;;
8001;SDS011;4046;48.774;8.732;2023-06-26T04:11:19;6.00;;;5.57;;
8001;SDS011;4046;48.774;8.732;2023-06-26T04:13:45;6.17;;;5.67;;
8001;SDS011;4046;48.774;8.732;2023-06-26T04:16:10;6.50;;;6.00;;
8001;SDS011;4046;48.774;8.732;2023-06-26T04:18:36;6.20;;;5.80;;
8001;SDS011;4046;48.774;8.732;2023-06-26T04:21:06;6.80;;;6.30;;
8001;SDS011;4046;48.774;8.732;2023-06-26T04:23:39;6.63;;;6.13;;
8001;SDS011;4046;48.774;8.732;2023-06-26T04:26:05;6.63;;;6.13;;
8001;SDS011;4046;48.774;8.732;2023-06-26T04:28:32;6.00;;;5.60;;
8001;SDS011;4046;48.774;8.732;2023-06-26T04:30:59;6.10;;;5.70;;
8001;SDS011;4046;48.774;8.732;2023-06-26T04:33:25;6.00;;;5.60;;
8001;SDS011;4046;48.774;8.732;2023-06-26T04:35:51;6.17;;;5.77;;
8001;SDS011;4046;48.774;8.732;2023-06-26T04:38:18;5.83;;;5.43;;
8001;SDS011;4046;48.774;8.732;2023-06-26T04:40:44;5.90;;;5.50;;
8001;SDS011;4046;48.774;8.732;2023-06-26T04:43:10;6.67;;;6.10;;
8001;SDS011;4046;48.774;8.732;2023-06-26T04:45:36;6.43;;;6.03;;
8001;SDS011;4046;48.774;8.732;2023-06-26T04:48:02;6.07;;;5.67;;
8001;SDS011;4046;48.774;8.732;2023-06-26T04:50:28;5.77;;;5.37;;
8001;SDS011;4046;48.774;8.732;2023-06-26T04:52:55;6.90;;;6.40;;
8001;SDS011;4046;48.774;8.732;2023-06-26T04:55:23;6.57;;;6.07;;
8001;SDS011;4046;48.774;8.732;2023-06-26T04:57:50;6.30;;;5.90;;
8001;SDS011;4046;48.774;8.732;2023-06-26T05:00:16;5.90;;;5.50;;
8001;SDS011;4046;48.774;8.732;2023-06-26T05:02:42;6.80;;;6.20;;
8001;SDS011;4046;48.774;8.732;2023-06-26T05:05:08;6.30;;;5.90;;
8001;SDS011;4046;48.774;8.732;2023-06-26T05:07:38;6.07;;;5.67;;
8001;SDS011;4046;48.774;8.732;2023-06-26T05:10:03;6.17;;;5.70;;
8001;SDS011;4046;48.774;8.732;2023-06-26T05:12:30;6.43;;;5.93;;
8001;SDS011;4046;48.774;8.732;2023-06-26T05:14:56;6.00;;;5.60;;
8001;SDS011;4046;48.774;8.732;2023-06-26T05:17:21;6.10;;;5.70;;
8001;SDS011;4046;48.774;8.732;2023-06-26T05:19:47;6.17;;;5.77;;
8001;SDS011;4046;48.774;8.732;2023-06-26T05:22:13;6.13;;;5.70;;
8001;SDS011;4046;48.774;8.732;2023-06-26T05:24:39;6.90;;;6.40;;
8001;SDS011;4046;48.774;8.732;2023-06-26T05:27:05;6.10;;;5.70;;
8001;SDS011;4046;48.774;8.732;2023-06-26T05:29:32;6.80;;;6.30;;
8001;SDS011;4046;48.774;8.732;2023-06-26T05:31:58;6.10;;;5.70;;
8001;SDS011;4046;48.774;8.732;2023-06-26T05:34:25;6.17;;;5.67;;
8001;SDS011;4046;48.774;8.732;2023-06-26T05:36:57;6.50;;;6.00;;
8001;SDS011;4046;48.774;8.732;2023-06-26T05:39:24;6.03;;;5.63;;
8001;SDS011;4046;48.774;8.732;2023-06-26T05:41:50;6.00;;;5.60;;
8001;SDS011;4046;48.774;8.732;2023-06-26T05:44:16;6.37;;;5.97;;
8001;SDS011;4046;48.774;8.732;2023-06-26T05:46:43;6.70;;;6.20;;
8001;SDS011;4046;48.774;8.732;2023-06-26T05:49:11;6.87;;;6.27;;
8001;SDS011;4046;48.774;8.732;2023-06-26T05:51:37;6.50;;;6.10;;
8001;SDS011;4046;48.774;8.732;2023-06-26T05:54:03;6.20;;;5.70;;
8001;SDS011;4046;48.774;8.732;2023-06-26T05:56:29;6.17;;;5.77;;
8001;SDS011;4046;48.774;8.732;2023-06-26T05:58:55;6.23;;;5.73;;
8001;SDS011;4046;48.774;8.732;2023-06-26T06:01:22;5.80;;;5.40;;
8001;SDS011;4046;48.774;8.732;2023-06-26T06:03:49;6.27;;;5.87;;
8001;SDS011;4046;48.774;8.732;2023-06-26T06:06:15;6.27;;;5.83;;
8001;SDS011;4046;48.774;8.732;2023-06-26T06:08:41;6.73;;;6.23;;
8001;SDS011;4046;48.774;8.732;2023-06-26T06:11:07;6.33;;;5.90;;
8001;SDS011;4046;48.774;8.732;2023-06-26T06:13:33;7.50;;;6.90;;
8001;SDS011;4046;48.774;8.732;2023-06-26T06:15:59;6.50;;;6.00;;
8001;SDS011;4046;48.774;8.732;2023-06-26T06:18:25;6.43;;;5.97;;
8001;SDS011;4046;48.774;8.732;2023-06-26T06:20:51;6.03;;;5.63;;
8001;SDS011;4046;48.774;8.732;2023-06-26T06:23:18;6.67;;;6.17;;
8001;SDS011;4046;48.774;8.732;2023-06-26T06:25:43;6.17;;;5.77;;
8001;SDS011;4046;48.774;8.732;2023-06-26T06:28:09;6.40;;;5.80;;
8001;SDS011;4046;48.774;8.732;2023-06-26T06:30:35;5.80;;;5.40;;
8001;SDS011;4046;48.774;8.732;2023-06-26T06:33:01;6.20;;;5.70;;
8001;SDS011;4046;48.774;8.732;2023-06-26T06:35:27;6.47;;;6.00;;
8001;SDS011;4046;48.774;8.732;2023-06-26T06:37:53;5.90;;;5.50;;
8001;SDS011;4046;48.774;8.732;2023-06-26T06:40:19;5.70;;;5.30;;
8001;SDS011;4046;48.774;8.732;2023-06-26T06:42:47;5.97;;;5.57;;
8001;SDS011;4046;48.774;8.732;2023-06-26T06:45:12;6.80;;;6.30;;
8001;SDS011;4046;48.774;8.732;2023-06-26T06:47:38;6.80;;;6.30;;
8001;SDS011;4046;48.774;8.732;2023-06-26T06:50:04;6.70;;;6.20;;
8001;SDS011;4046;48.774;8.732;2023-06-26T06:52:34;6.23;;;5.83;;
8001;SDS011;4046;48.774;8.732;2023-06-26T06:55:06;5.90;;;5.50;;
8001;SDS011;4046;48.774;8.732;2023-06-26T06:57:37;5.93;;;5.53;;
8001;SDS011;4046;48.774;8.732;2023-06-26T07:00:05;6.00;;;5.60;;
8001;SDS011;4046;48.774;8.732;2023-06-26T07:02:38;6.50;;;6.00;;
8001;SDS011;4046;48.774;8.732;2023-06-26T07:05:05;6.27;;;5.77;;
8001;SDS011;4046;48.774;8.732;2023-06-26T07:07:32;5.90;;;5.50;;
8001;SDS011;4046;48.774;8.732;2023-06-26T07:10:09;6.10;;;5.70;;
8001;SDS011;4046;48.774;8.732;2023-06-26T07:12:36;6.23;;;5.83;;
8001;SDS011;4046;48.774;8.732;2023-06-26T07:15:02;6.33;;;5.93;;
8001;SDS011;4046;48.774;8.732;2023-06-26T07:17:33;6.77;;;6.17;;
8001;SDS011;4046;48.774;8.732;2023-06-26T07:20:00;6.20;;;5.80;;
8001;SDS011;4046;48.774;8.732;2023-06-26T07:22:26;5.87;;;5.47;;
8001;SDS011;4046;48.774;8.732;2023-06-26T07:24:52;5.67;;;5.17;;
8001;SDS011;4046;48.774;8.732;2023-06-26T07:27:18;5.77;;;5.27;;
8001;SDS011;4046;48.774;8.732;2023-06-26T07:29:44;6.40;;;5.90;;
8001;SDS011;4046;48.774;8.732;2023-06-26T07:32:10;6.33;;;5.83;;
8001;SDS011;4046;48.774;8.732;2023-06-26T07:34:36;5.57;;;5.17;;
8001;SDS011;4046;48.774;8.732;2023-06-26T07:37:02;6.30;;;5.80;;
8001;SDS011;4046;48.774;8.732;2023-06-26T07:39:29;6.20;;;5.77;;
8001;SDS011;4046;48.774;8.732;2023-06-26T07:41:54;6.43;;;6.03;;
8001;SDS011;4046;48.774;8.732;2023-06-26T07:44:21;5.87;;;5.47;;
8001;SDS011;4046;48.774;8.732;2023-06-26T07:46:47;6.37;;;5.90;;
8001;SDS011;4046;48.774;8.732;2023-06-26T07:49:12;5.47;;;5.10;;
8001;SDS011;4046;48.774;8.732;2023-06-26T07:51:38;5.97;;;5.57;;
8001;SDS011;4046;48.774;8.732;2023-06-26T07:54:04;6.00;;;5.60;;
8001;SDS011;4046;48.774;8.732;2023-06-26T07:56:30;5.73;;;5.37;;
8001;SDS011;4046;48.774;8.732;2023-06-26T07:58:55;6.13;;;5.73;;
8001;SDS011;4046;48.774;8.732;2023-06-26T08:01:23;5.93;;;5.53;;
8001;SDS011;4046;48.774;8.732;2023-06-26T08:03:49;5.90;;;5.50;;
8001;SDS011;4046;48.774;8.732;2023-06-26T08:06:15;6.07;;;5.67;;
8001;SDS011;4046;48.774;8.732;2023-06-26T08:08:41;4.93;;;4.63;;
8001;SDS011;4046;48.774;8.732;2023-06-26T08:11:07;5.20;;;4.90;;
8001;SDS011;4046;48.774;8.732;2023-06-26T08:13:33;5.87;;;5.47;;
8001;SDS011;4046;48.774;8.732;2023-06-26T08:15:59;5.40;;;5.10;;
8001;SDS011;4046;48.774;8.732;2023-06-26T08:18:25;5.83;;;5.43;;
8001;SDS011;4046;48.774;8.732;2023-06-26T08:20:50;5.37;;;4.97;;
8001;SDS011;4046;48.774;8.732;2023-06-26T08:23:16;5.50;;;5.10;;
8001;SDS011;4046;48.774;8.732;2023-06-26T08:25:42;5.80;;;5.40;;
8001;SDS011;4046;48.774;8.732;2023-06-26T08:28:08;5.13;;;4.83;;
8001;SDS011;4046;48.774;8.732;2023-06-26T08:30:34;5.47;;;5.10;;
8001;SDS011;4046;48.774;8.732;2023-06-26T08:32:59;5.53;;;5.23;;
8001;SDS011;4046;48.774;8.732;2023-06-26T08:35:25;5.00;;;4.70;;
8001;SDS011;4046;48.774;8.732;2023-06-26T08:37:51;5.20;;;4.90;;
8001;SDS011;4046;48.774;8.732;2023-06-26T08:40:19;5.47;;;5.07;;
8001;SDS011;4046;48.774;8.732;2023-06-26T08:42:46;5.67;;;5.30;;
8001;SDS011;4046;48.774;8.732;2023-06-26T08:45:12;5.43;;;5.13;;
8001;SDS011;4046;48.774;8.732;2023-06-26T08:47:40;5.50;;;5.10;;
8001;SDS011;4046;48.774;8.732;2023-06-26T08:50:10;5.80;;;5.40;;
8001;SDS011;4046;48.774;8.732;2023-06-26T08:52:56;5.47;;;4.90;;
8001;SDS011;4046;48.774;8.732;2023-06-26T08:55:41;5.53;;;5.13;;
8001;SDS011;4046;48.774;8.732;2023-06-26T08:58:08;6.17;;;5.57;;
8001;SDS011;4046;48.774;8.732;2023-06-26T09:00:35;5.73;;;5.33;;
8001;SDS011;4046;48.774;8.732;2023-06-26T09:03:02;5.07;;;4.77;;
8001;SDS011;4046;48.774;8.732;2023-06-26T09:05:29;5.10;;;4.70;;
8001;SDS011;4046;48.774;8.732;2023-06-26T09:07:57;5.17;;;4.83;;
8001;SDS011;4046;48.774;8.732;2023-06-26T09:10:23;5.10;;;4.77;;
8001;SDS011;4046;48.774;8.732;2023-06-26T09:12:49;5.73;;;5.33;;
8001;SDS011;4046;48.774;8.732;2023-06-26T09:15:16;6.00;;;5.60;;
8001;SDS011;4046;48.774;8.732;2023-06-26T09:17:45;5.10;;;4.80;;
8001;SDS011;4046;48.774;8.732;2023-06-26T09:20:12;5.13;;;4.73;;
8001;SDS011;4046;48.774;8.732;2023-06-26T09:22:41;5.17;;;4.77;;
8001;SDS011;4046;48.774;8.732;2023-06-26T09:25:08;6.10;;;5.70;;
8001;SDS011;4046;48.774;8.732;2023-06-26T09:27:38;5.17;;;4.80;;
8001;SDS011;4046;48.774;8.732;2023-06-26T09:30:05;5.40;;;5.00;;
8001;SDS011;4046;48.774;8.732;2023-06-26T09:32:35;6.00;;;5.60;;
8001;SDS011;4046;48.774;8.732;2023-06-26T09:35:02;5.50;;;5.10;;
8001;SDS011;4046;48.774;8.732;2023-06-26T09:37:28;5.40;;;5.00;;
8001;SDS011;4046;48.774;8.732;2023-06-26T09:39:54;5.30;;;4.90;;
8001;SDS011;4046;48.774;8.732;2023-06-26T09:42:20;5.40;;;5.00;;
8001;SDS011;4046;48.774;8.732;2023-06-26T09:44:47;5.70;;;5.30;;
8001;SDS011;4046;48.774;8.732;2023-06-26T09:47:16;5.67;;;5.27;;
8001;SDS011;4046;48.774;8.732;2023-06-26T09:49:44;5.60;;;5.20;;
8001;SDS011;4046;48.774;8.732;2023-06-26T09:52:10;5.27;;;4.97;;
8001;SDS011;4046;48.774;8.732;2023-06-26T09:54:42;5.17;;;4.77;;
8001;SDS011;4046;48.774;8.732;2023-06-26T09:57:10;5.77;;;5.20;;
8001;SDS011;4046;48.774;8.732;2023-06-26T09:59:44;5.67;;;5.23;;
8001;SDS011;4046;48.774;8.732;2023-06-26T10:02:10;6.20;;;5.77;;
8001;SDS011;4046;48.774;8.732;2023-06-26T10:04:37;5.83;;;5.43;;
8001;SDS011;4046;48.774;8.732;2023-06-26T10:07:06;5.80;;;5.40;;
8001;SDS011;4046;48.774;8.732;2023-06-26T10:09:37;5.70;;;5.23;;
8001;SDS011;4046;48.774;8.732;2023-06-26T10:12:11;6.10;;;5.70;;
8001;SDS011;4046;48.774;8.732;2023-06-26T10:14:43;5.73;;;5.23;;
8001;SDS011;4046;48.774;8.732;2023-06-26T10:17:13;6.63;;;6.20;;
8001;SDS011;4046;48.774;8.732;2023-06-26T10:19:44;6.10;;;5.70;;
8001;SDS011;4046;48.774;8.732;2023-06-26T10:22:11;6.37;;;5.87;;
8001;SDS011;4046;48.774;8.732;2023-06-26T10:24:39;6.20;;;5.70;;
8001;SDS011;4046;48.774;8.732;2023-06-26T10:27:21;5.90;;;5.50;;
8001;SDS011;4046;48.774;8.732;2023-06-26T10:29:52;7.37;;;5.67;;
8001;SDS011;4046;48.774;8.732;2023-06-26T10:32:23;5.63;;;5.23;;
8001;SDS011;4046;48.774;8.732;2023-06-26T10:34:51;5.97;;;5.57;;
8001;SDS011;4046;48.774;8.732;2023-06-26T10:37:18;5.90;;;5.50;;
8001;SDS011;4046;48.774;8.732;2023-06-26T10:39:51;6.13;;;5.40;;
8001;SDS011;4046;48.774;8.732;2023-06-26T10:42:20;5.77;;;5.37;;
8001;SDS011;4046;48.774;8.732;2023-06-26T10:45:10;6.20;;;5.80;;
8001;SDS011;4046;48.774;8.732;2023-06-26T10:47:40;5.73;;;5.43;;
8001;SDS011;4046;48.774;8.732;2023-06-26T10:53:12;6.63;;;6.10;;
8001;SDS011;4046;48.774;8.732;2023-06-26T10:55:50;5.97;;;5.47;;
8001;SDS011;4046;48.774;8.732;2023-06-26T10:58:26;6.27;;;5.77;;
8001;SDS011;4046;48.774;8.732;2023-06-26T11:01:09;6.13;;;5.73;;
8001;SDS011;4046;48.774;8.732;2023-06-26T11:03:47;6.70;;;6.20;;
8001;SDS011;4046;48.774;8.732;2023-06-26T11:06:17;6.77;;;6.17;;
8001;SDS011;4046;48.774;8.732;2023-06-26T11:14:24;6.33;;;5.90;;
8001;SDS011;4046;48.774;8.732;2023-06-26T11:16:52;6.47;;;5.97;;
8001;SDS011;4046;48.774;8.732;2023-06-26T11:19:20;6.23;;;5.83;;
8001;SDS011;4046;48.774;8.732;2023-06-26T11:21:46;6.27;;;5.87;;
8001;SDS011;4046;48.774;8.732;2023-06-26T11:24:12;6.37;;;5.87;;
8001;SDS011;4046;48.774;8.732;2023-06-26T11:26:39;5.50;;;5.10;;
8001;SDS011;4046;48.774;8.732;2023-06-26T11:29:06;6.30;;;5.90;;
8001;SDS011;4046;48.774;8.732;2023-06-26T11:31:33;6.50;;;6.00;;
8001;SDS011;4046;48.774;8.732;2023-06-26T11:34:04;5.60;;;5.30;;
8001;SDS011;4046;48.774;8.732;2023-06-26T11:36:32;7.07;;;6.50;;
8001;SDS011;4046;48.774;8.732;2023-06-26T11:39:02;6.70;;;6.30;;
8001;SDS011;4046;48.774;8.732;2023-06-26T11:41:31;5.60;;;5.20;;
8001;SDS011;4046;48.774;8.732;2023-06-26T11:44:05;6.43;;;6.03;;
8001;SDS011;4046;48.774;8.732;2023-06-26T11:46:33;6.37;;;5.87;;
8001;SDS011;4046;48.774;8.732;2023-06-26T11:49:02;6.27;;;5.87;;
8001;SDS011;4046;48.774;8.732;2023-06-26T11:51:29;5.33;;;5.03;;
8001;SDS011;4046;48.774;8.732;2023-06-26T11:53:55;6.50;;;6.03;;
8001;SDS011;4046;48.774;8.732;2023-06-26T11:56:21;6.37;;;5.97;;
8001;SDS011;4046;48.774;8.732;2023-06-26T11:58:58;6.27;;;5.87;;
8001;SDS011;4046;48.774;8.732;2023-06-26T12:04:03;6.50;;;6.10;;
8001;SDS011;4046;48.774;8.732;2023-06-26T12:06:31;6.50;;;6.10;;
8001;SDS011;4046;48.774;8.732;2023-06-26T12:09:02;6.13;;;5.73;;
8001;SDS011;4046;48.774;8.732;2023-06-26T12:11:30;7.03;;;6.43;;
8001;SDS011;4046;48.774;8.732;2023-06-26T12:13:58;6.37;;;5.97;;
8001;SDS011;4046;48.774;8.732;2023-06-26T12:16:24;6.00;;;5.60;;
8001;SDS011;4046;48.774;8.732;2023-06-26T12:18:50;6.53;;;6.07;;
8001;SDS011;4046;48.774;8.732;2023-06-26T12:23:58;6.20;;;5.80;;
8001;SDS011;4046;48.774;8.732;2023-06-26T12:26:25;6.37;;;5.87;;
8001;SDS011;4046;48.774;8.732;2023-06-26T12:28:53;6.87;;;6.37;;
8001;SDS011;4046;48.774;8.732;2023-06-26T12:31:26;6.07;;;5.47;;
8001;SDS011;4046;48.774;8.732;2023-06-26T12:33:52;6.33;;;5.83;;
8001;SDS011;4046;48.774;8.732;2023-06-26T12:36:18;6.73;;;6.23;;
8001;SDS011;4046;48.774;8.732;2023-06-26T12:38:44;6.60;;;6.10;;
8001;SDS011;4046;48.774;8.732;2023-06-26T12:41:12;5.87;;;5.47;;
8001;SDS011;4046;48.774;8.732;2023-06-26T12:43:42;6.60;;;6.20;;
8001;SDS011;4046;48.774;8.732;2023-06-26T12:46:08;6.30;;;5.90;;
8001;SDS011;4046;48.774;8.732;2023-06-26T12:48:37;6.70;;;6.20;;
8001;SDS011;4046;48.774;8.732;2023-06-26T12:51:12;6.07;;;5.60;;
8001;SDS011;4046;48.774;8.732;2023-06-26T12:53:38;6.30;;;5.80;;
8001;SDS011;4046;48.774;8.732;2023-06-26T12:56:07;5.80;;;5.40;;
8001;SDS011;4046;48.774;8.732;2023-06-26T12:58:34;6.60;;;6.00;;
8001;SDS011;4046;48.774;8.732;2023-06-26T13:01:05;5.97;;;5.47;;
8001;SDS011;4046;48.774;8.732;2023-06-26T13:03:42;5.60;;;5.27;;
8001;SDS011;4046;48.774;8.732;2023-06-26T13:06:08;6.30;;;5.90;;
8001;SDS011;4046;48.774;8.732;2023-06-26T13:08:33;6.13;;;5.70;;
8001;SDS011;4046;48.774;8.732;2023-06-26T13:10:59;6.20;;;5.70;;
8001;SDS011;4046;48.774;8.732;2023-06-26T13:13:25;6.40;;;6.00;;
8001;SDS011;4046;48.774;8.732;2023-06-26T13:15:51;6.10;;;5.70;;
8001;SDS011;4046;48.774;8.732;2023-06-26T13:18:17;6.20;;;5.80;;
8001;SDS011;4046;48.774;8.732;2023-06-26T13:20:43;5.07;;;4.77;;
8001;SDS011;4046;48.774;8.732;2023-06-26T13:23:09;6.10;;;5.70;;
8001;SDS011;4046;48.774;8.732;2023-06-26T13:25:34;6.47;;;5.97;;
8001;SDS011;4046;48.774;8.732;2023-06-26T13:28:00;5.27;;;4.87;;
8001;SDS011;4046;48.774;8.732;2023-06-26T13:30:26;6.40;;;5.80;;
8001;SDS011;4046;48.774;8.732;2023-06-26T13:32:52;5.43;;;5.03;;
8001;SDS011;4046;48.774;8.732;2023-06-26T13:35:17;5.97;;;5.57;;
8001;SDS011;4046;48.774;8.732;2023-06-26T13:37:43;5.53;;;5.23;;
8001;SDS011;4046;48.774;8.732;2023-06-26T13:40:09;5.50;;;5.20;;
8001;SDS011;4046;48.774;8.732;2023-06-26T13:42:35;5.93;;;5.53;;
8001;SDS011;4046;48.774;8.732;2023-06-26T13:45:02;5.90;;;5.40;;
8001;SDS011;4046;48.774;8.732;2023-06-26T13:47:28;5.70;;;5.30;;
8001;SDS011;4046;48.774;8.732;2023-06-26T13:49:54;5.40;;;5.00;;
8001;SDS011;4046;48.774;8.732;2023-06-26T13:52:20;5.80;;;5.40;;
8001;SDS011;4046;48.774;8.732;2023-06-26T13:54:46;5.60;;;5.20;;
8001;SDS011;4046;48.774;8.732;2023-06-26T13:57:11;4.53;;;4.23;;
8001;SDS011;4046;48.774;8.732;2023-06-26T13:59:38;5.50;;;5.10;;
8001;SDS011;4046;48.774;8.732;2023-06-26T14:02:07;5.10;;;4.80;;
8001;SDS011;4046;48.774;8.732;2023-06-26T14:04:33;5.10;;;4.80;;
8001;SDS011;4046;48.774;8.732;2023-06-26T14:06:59;5.40;;;5.00;;
8001;SDS011;4046;48.774;8.732;2023-06-26T14:09:25;5.43;;;4.93;;
8001;SDS011;4046;48.774;8.732;2023-06-26T14:11:51;5.07;;;4.53;;
8001;SDS011;4046;48.774;8.732;2023-06-26T14:14:16;5.20;;;4.80;;
8001;SDS011;4046;48.774;8.732;2023-06-26T14:16:42;5.10;;;4.80;;
8001;SDS011;4046;48.774;8.732;2023-06-26T14:19:08;4.67;;;4.37;;
8001;SDS011;4046;48.774;8.732;2023-06-26T14:21:39;5.13;;;4.43;;
8001;SDS011;4046;48.774;8.732;2023-06-26T14:24:06;5.60;;;5.20;;
8001;SDS011;4046;48.774;8.732;2023-06-26T14:26:31;5.70;;;5.30;;
8001;SDS011;4046;48.774;8.732;2023-06-26T14:28:59;5.13;;;4.63;;
8001;SDS011;4046;48.774;8.732;2023-06-26T14:31:27;4.90;;;4.50;;
8001;SDS011;4046;48.774;8.732;2023-06-26T14:33:53;5.60;;;5.17;;
8001;SDS011;4046;48.774;8.732;2023-06-26T14:36:19;5.17;;;4.87;;
8001;SDS011;4046;48.774;8.732;2023-06-26T14:38:45;5.30;;;5.00;;
8001;SDS011;4046;48.774;8.732;2023-06-26T14:41:11;5.37;;;4.97;;
8001;SDS011;4046;48.774;8.732;2023-06-26T14:43:37;5.33;;;4.93;;
8001;SDS011;4046;48.774;8.732;2023-06-26T14:46:03;4.57;;;4.27;;
8001;SDS011;4046;48.774;8.732;2023-06-26T14:48:29;4.63;;;4.33;;
8001;SDS011;4046;48.774;8.732;2023-06-26T14:50:55;4.70;;;4.40;;
8001;SDS011;4046;48.774;8.732;2023-06-26T14:53:21;5.23;;;4.83;;
8001;SDS011;4046;48.774;8.732;2023-06-26T14:55:47;4.73;;;4.43;;
8001;SDS011;4046;48.774;8.732;2023-06-26T14:58:13;4.23;;;3.93;;
8001;SDS011;4046;48.774;8.732;2023-06-26T15:00:38;4.60;;;4.30;;
8001;SDS011;4046;48.774;8.732;2023-06-26T15:03:04;4.40;;;4.10;;
8001;SDS011;4046;48.774;8.732;2023-06-26T15:05:30;4.43;;;4.13;;
8001;SDS011;4046;48.774;8.732;2023-06-26T15:07:55;4.90;;;4.47;;
8001;SDS011;4046;48.774;8.732;2023-06-26T15:10:21;4.43;;;4.13;;
8001;SDS011;4046;48.774;8.732;2023-06-26T15:12:47;4.87;;;4.57;;
8001;SDS011;4046;48.774;8.732;2023-06-26T15:15:13;4.63;;;4.33;;
8001;SDS011;4046;48.774;8.732;2023-06-26T15:17:39;5.30;;;4.90;;
8001;SDS011;4046;48.774;8.732;2023-06-26T15:20:04;4.77;;;4.47;;
8001;SDS011;4046;48.774;8.732;2023-06-26T15:22:31;4.97;;;4.57;;
8001;SDS011;4046;48.774;8.732;2023-06-26T15:24:58;5.30;;;4.90;;
8001;SDS011;4046;48.774;8.732;2023-06-26T15:27:23;5.07;;;4.67;;
8001;SDS011;4046;48.774;8.732;2023-06-26T15:29:49;4.63;;;4.23;;
8001;SDS011;4046;48.774;8.732;2023-06-26T15:32:15;4.67;;;4.37;;
8001;SDS011;4046;48.774;8.732;2023-06-26T15:34:41;4.77;;;4.47;;
8001;SDS011;4046;48.774;8.732;2023-06-26T15:37:07;4.67;;;4.27;;